Time;durP1;ratioP1;P1;durP2;ratioP2;P2;SDS_P1;SDS_P2;PMS_P1;PMS_P2;Temp;Humidity;BMP_temperature;BMP_pressure;BME280_temperature;BME280_humidity;BME280_pressure;Samples;Min_cycle;Max_cycle;Signal;HPM_P1;HPM_P2
2023/06/02 00:01:01;;;;;;;11.03;4.30;;;11.90;99.90;;;;;;5011386;28;20515;-52
2023/06/02 00:03:29;;;;;;;22.33;4.20;;;11.80;99.90;;;;;;5014124;28;20914;-52
2023/06/02 00:05:57;;;;;;;15.67;3.37;;;11.80;99.90;;;;;;5014351;28;20551;-52
2023/06/02 00:08:23;;;;;;;12.00;3.73;;;11.70;99.90;;;;;;5014319;28;20448;-52
2023/06/02 00:10:50;;;;;;;8.17;3.30;;;11.70;99.90;;;;;;5013639;28;20973;-52
2023/06/02 00:13:17;;;;;;;14.00;3.87;;;11.60;99.90;;;;;;5013927;28;20510;-52
2023/06/02 00:15:45;;;;;;;19.27;3.87;;;11.60;99.90;;;;;;5015165;28;20562;-52
2023/06/02 00:18:11;;;;;;;20.10;4.37;;;11.60;99.90;;;;;;5014412;28;20872;-52
2023/06/02 00:20:38;;;;;;;11.10;3.20;;;11.50;99.90;;;;;;5013232;28;20946;-52
2023/06/02 00:23:08;;;;;;;26.73;4.33;;;11.40;99.90;;;;;;5013682;28;20496;-52
2023/06/02 00:25:35;;;;;;;17.93;4.27;;;11.40;99.90;;;;;;5006087;28;20469;-52
2023/06/02 00:28:01;;;;;;;10.97;3.57;;;11.30;99.90;;;;;;5012403;28;20488;-51
2023/06/02 00:30:28;;;;;;;15.43;3.40;;;11.30;99.90;;;;;;5006279;28;20495;-52
2023/06/02 00:32:56;;;;;;;15.00;3.20;;;11.30;99.90;;;;;;5005881;28;21064;-52
2023/06/02 00:35:23;;;;;;;14.63;3.83;;;11.20;99.90;;;;;;5012865;28;20498;-52
2023/06/02 00:37:49;;;;;;;11.93;3.50;;;11.10;99.90;;;;;;5006479;28;20484;-52
2023/06/02 00:40:16;;;;;;;6.67;3.00;;;11.00;99.90;;;;;;5013973;28;20500;-52
2023/06/02 00:42:42;;;;;;;10.50;3.43;;;11.10;99.90;;;;;;5013723;28;20515;-52
2023/06/02 00:45:10;;;;;;;16.07;4.23;;;10.90;99.90;;;;;;5006212;23;20924;-52
2023/06/02 00:47:36;;;;;;;16.13;3.30;;;11.00;99.90;;;;;;4983475;28;20981;-51
2023/06/02 00:50:05;;;;;;;9.57;3.20;;;10.90;99.90;;;;;;4982065;28;20981;-51
2023/06/02 00:52:34;;;;;;;18.47;4.27;;;10.80;99.90;;;;;;4993318;28;20947;-51
2023/06/02 00:55:02;;;;;;;21.03;4.70;;;10.70;99.90;;;;;;4988947;28;20484;-51
2023/06/02 00:57:33;;;;;;;15.87;3.83;;;10.70;99.90;;;;;;4988216;28;20926;-52
2023/06/02 01:00:01;;;;;;;14.63;4.20;;;10.70;99.90;;;;;;4987041;28;20472;-51
2023/06/02 01:02:27;;;;;;;12.03;3.80;;;10.80;99.90;;;;;;4991102;28;20485;-51
2023/06/02 01:04:57;;;;;;;24.17;4.93;;;10.70;99.90;;;;;;4989667;28;20842;-51
2023/06/02 01:07:27;;;;;;;13.43;3.50;;;10.80;99.90;;;;;;4981545;28;20465;-53
2023/06/02 01:09:57;;;;;;;15.73;4.20;;;10.70;99.90;;;;;;4991260;28;20560;-51
2023/06/02 01:12:24;;;;;;;17.53;4.67;;;10.70;99.90;;;;;;4986179;28;20808;-51
2023/06/02 01:14:51;;;;;;;13.47;3.50;;;10.70;99.90;;;;;;4990626;28;20482;-51
2023/06/02 01:17:18;;;;;;;8.93;3.03;;;10.70;99.90;;;;;;4991435;28;20507;-51
2023/06/02 01:19:47;;;;;;;19.03;4.40;;;10.60;99.90;;;;;;4992261;28;20467;-50
2023/06/02 01:22:19;;;;;;;31.30;4.90;;;10.60;99.90;;;;;;4991967;28;20575;-52
2023/06/02 01:24:49;;;;;;;16.20;4.40;;;10.60;99.90;;;;;;4991603;28;20465;-53
2023/06/02 01:27:16;;;;;;;22.97;3.87;;;10.60;99.90;;;;;;4986012;28;20457;-53
2023/06/02 01:29:44;;;;;;;19.40;3.97;;;10.60;99.90;;;;;;4985904;28;20492;-53
2023/06/02 01:32:19;;;;;;;18.70;5.20;;;10.50;99.90;;;;;;4991376;28;20437;-51
2023/06/02 01:34:53;;;;;;;19.53;4.33;;;10.40;99.90;;;;;;4984231;28;20495;-53
2023/06/02 01:37:21;;;;;;;15.77;4.17;;;10.40;99.90;;;;;;4990918;28;20514;-53
2023/06/02 01:39:50;;;;;;;14.40;3.67;;;10.30;99.90;;;;;;4989383;28;20461;-53
2023/06/02 01:42:17;;;;;;;16.93;4.60;;;10.30;99.90;;;;;;4997486;28;20516;-52
2023/06/02 01:44:45;;;;;;;16.03;4.10;;;10.30;99.90;;;;;;4987746;28;20501;-51
2023/06/02 01:47:12;;;;;;;17.50;5.07;;;10.30;99.90;;;;;;4988386;28;20500;-54
2023/06/02 01:49:38;;;;;;;24.47;4.80;;;10.20;99.90;;;;;;4988666;28;20503;-51
2023/06/02 01:52:05;;;;;;;18.87;5.00;;;10.20;99.90;;;;;;4992354;28;20473;-52
2023/06/02 01:54:32;;;;;;;18.87;4.70;;;10.20;99.90;;;;;;4989393;28;20524;-52
2023/06/02 01:57:00;;;;;;;22.30;5.00;;;10.30;99.90;;;;;;4989818;28;20502;-53
2023/06/02 01:59:27;;;;;;;21.23;4.30;;;10.20;99.90;;;;;;4991578;28;20460;-52
2023/06/02 02:01:53;;;;;;;12.87;3.90;;;10.20;99.90;;;;;;4993142;28;20884;-52
2023/06/02 02:04:20;;;;;;;16.60;4.03;;;10.30;99.90;;;;;;4992096;28;20504;-52
2023/06/02 02:06:49;;;;;;;25.73;4.93;;;10.30;99.90;;;;;;4990122;28;20472;-52
2023/06/02 02:09:16;;;;;;;23.30;5.10;;;10.30;99.90;;;;;;4991361;28;20487;-52
2023/06/02 02:11:42;;;;;;;29.87;4.60;;;10.20;99.90;;;;;;4992401;28;20475;-53
2023/06/02 02:14:13;;;;;;;21.77;5.27;;;10.30;99.90;;;;;;4990347;28;20504;-53
2023/06/02 02:16:44;;;;;;;26.53;4.27;;;10.30;99.90;;;;;;4992347;28;20445;-51
2023/06/02 02:19:12;;;;;;;26.93;5.20;;;10.30;99.90;;;;;;4992323;28;20500;-53
2023/06/02 02:21:38;;;;;;;32.03;5.10;;;10.30;99.90;;;;;;4992203;28;20483;-53
2023/06/02 02:24:07;;;;;;;18.17;4.20;;;10.30;99.90;;;;;;4990433;28;20484;-53
2023/06/02 02:26:33;;;;;;;34.67;5.97;;;10.20;99.90;;;;;;4992335;28;20476;-53
2023/06/02 02:29:00;;;;;;;25.53;5.83;;;10.20;99.90;;;;;;4991201;28;21009;-52
2023/06/02 02:31:28;;;;;;;19.33;4.73;;;10.20;99.90;;;;;;4990702;28;20485;-53
2023/06/02 02:33:55;;;;;;;26.33;5.23;;;10.20;99.90;;;;;;4990758;28;20489;-52
2023/06/02 02:36:22;;;;;;;21.13;4.20;;;10.20;99.90;;;;;;4989233;28;20572;-52
2023/06/02 02:38:48;;;;;;;16.00;5.00;;;10.10;99.90;;;;;;4989852;28;20492;-51
2023/06/02 02:41:15;;;;;;;25.17;5.60;;;10.10;99.90;;;;;;4992199;28;20479;-51
2023/06/02 02:43:41;;;;;;;20.93;4.70;;;10.00;99.90;;;;;;4990890;28;20896;-52
2023/06/02 02:46:08;;;;;;;25.53;4.97;;;10.00;99.90;;;;;;4991808;28;20491;-51
2023/06/02 02:48:36;;;;;;;14.97;3.67;;;10.10;99.90;;;;;;4990466;28;20501;-52
2023/06/02 02:51:03;;;;;;;22.80;5.73;;;10.10;99.90;;;;;;4989329;28;21005;-51
2023/06/02 02:53:31;;;;;;;15.47;4.30;;;10.10;99.90;;;;;;4990732;28;20490;-52
2023/06/02 02:55:57;;;;;;;24.43;4.77;;;10.10;99.90;;;;;;4990883;28;20524;-52
2023/06/02 02:58:24;;;;;;;24.30;5.43;;;10.10;99.90;;;;;;4989889;28;20972;-52
2023/06/02 03:00:50;;;;;;;20.23;5.27;;;9.90;99.90;;;;;;4988786;28;20465;-52
2023/06/02 03:03:17;;;;;;;29.77;4.53;;;9.90;99.90;;;;;;4989959;28;20894;-52
2023/06/02 03:05:47;;;;;;;20.70;5.43;;;9.90;99.90;;;;;;4984901;28;20465;-52
2023/06/02 03:08:15;;;;;;;20.50;4.57;;;10.00;99.90;;;;;;4990641;28;20449;-53
2023/06/02 03:10:42;;;;;;;18.30;4.60;;;9.90;99.90;;;;;;4988742;28;20464;-52
2023/06/02 03:13:09;;;;;;;19.60;4.40;;;9.90;99.90;;;;;;4989969;28;20552;-52
2023/06/02 03:15:36;;;;;;;23.37;4.33;;;9.90;99.90;;;;;;4989275;28;20499;-52
2023/06/02 03:18:03;;;;;;;27.00;5.90;;;9.90;99.90;;;;;;4990591;28;20518;-53
2023/06/02 03:20:30;;;;;;;28.07;5.40;;;9.90;99.90;;;;;;4990047;28;20529;-51
2023/06/02 03:22:58;;;;;;;19.20;4.60;;;9.90;99.90;;;;;;4994062;28;21012;-52
2023/06/02 03:25:24;;;;;;;18.43;4.27;;;9.90;99.90;;;;;;4993478;28;20495;-51
2023/06/02 03:27:51;;;;;;;22.57;5.30;;;9.90;99.90;;;;;;4994272;28;20511;-50
2023/06/02 03:30:20;;;;;;;19.43;4.80;;;10.00;99.90;;;;;;4991083;28;20515;-51
2023/06/02 03:32:47;;;;;;;15.90;4.80;;;10.00;99.90;;;;;;4994860;28;20445;-52
2023/06/02 03:35:14;;;;;;;21.23;4.93;;;10.00;99.90;;;;;;4987302;28;20516;-51
2023/06/02 03:37:40;;;;;;;27.57;5.33;;;10.00;99.90;;;;;;4993950;28;20833;-51
2023/06/02 03:40:10;;;;;;;25.40;5.60;;;10.00;99.90;;;;;;4994159;28;21227;-52
2023/06/02 03:42:36;;;;;;;16.83;4.47;;;10.00;99.90;;;;;;4987638;28;20905;-52
2023/06/02 03:45:03;;;;;;;17.20;4.80;;;10.00;99.90;;;;;;4992432;28;20846;-52
2023/06/02 03:47:30;;;;;;;21.07;6.13;;;9.90;99.90;;;;;;4994930;28;20488;-50
2023/06/02 03:49:56;;;;;;;28.87;6.50;;;9.90;99.90;;;;;;4991819;28;20976;-52
2023/06/02 03:52:24;;;;;;;20.38;4.78;;;9.90;99.90;;;;;;4991369;28;20459;-52
2023/06/02 03:54:50;;;;;;;20.67;5.20;;;9.90;99.90;;;;;;4993237;28;20232;-51
2023/06/02 03:57:18;;;;;;;19.27;5.33;;;9.90;99.90;;;;;;4994648;28;20451;-52
2023/06/02 03:59:45;;;;;;;23.60;5.30;;;9.90;99.90;;;;;;4994174;28;20511;-52
2023/06/02 04:02:11;;;;;;;16.17;4.87;;;9.90;99.90;;;;;;4994629;28;20519;-52
2023/06/02 04:04:38;;;;;;;23.17;5.13;;;10.00;99.90;;;;;;4993096;28;20527;-52
2023/06/02 04:07:05;;;;;;;19.80;5.47;;;10.00;99.90;;;;;;4994416;28;20880;-52
2023/06/02 04:09:32;;;;;;;23.80;4.43;;;10.00;99.90;;;;;;4994302;28;20453;-52
2023/06/02 04:11:59;;;;;;;20.70;5.40;;;10.00;99.90;;;;;;4993409;28;20599;-52
2023/06/02 04:14:28;;;;;;;14.90;4.50;;;10.10;99.90;;;;;;4993773;28;21031;-51
2023/06/02 04:16:55;;;;;;;22.90;6.27;;;10.10;99.90;;;;;;4993462;28;20456;-51
2023/06/02 04:19:21;;;;;;;24.50;5.50;;;10.20;99.90;;;;;;4994267;28;20499;-52
2023/06/02 04:21:48;;;;;;;19.20;5.70;;;10.20;99.90;;;;;;4994254;28;20477;-51
2023/06/02 04:24:15;;;;;;;21.00;6.03;;;10.10;99.90;;;;;;4993795;28;20497;-51
2023/06/02 04:26:41;;;;;;;13.27;4.33;;;10.20;99.90;;;;;;4994106;28;20502;-51
2023/06/02 04:29:08;;;;;;;16.23;5.13;;;10.20;99.90;;;;;;4993044;28;20487;-52
2023/06/02 04:31:43;;;;;;;15.30;5.00;;;10.30;99.90;;;;;;4992124;28;20489;-52
2023/06/02 04:34:10;;;;;;;20.93;5.40;;;10.20;99.90;;;;;;4990391;28;20521;-52
2023/06/02 04:36:36;;;;;;;18.87;4.63;;;10.20;1.40;;;;;;4986816;28;20515;-51
2023/06/02 04:39:03;;;;;;;22.60;5.03;;;10.30;99.90;;;;;;4987731;28;20464;-52
2023/06/02 04:41:31;;;;;;;19.77;4.23;;;10.20;1.40;;;;;;4988438;28;20477;-52
2023/06/02 04:43:58;;;;;;;21.37;5.10;;;10.30;99.90;;;;;;4993196;28;20484;-52
2023/06/02 04:46:26;;;;;;;12.93;4.30;;;10.40;99.90;;;;;;4986915;28;20987;-51
2023/06/02 04:48:54;;;;;;;24.50;4.63;;;10.40;99.90;;;;;;4993354;28;20986;-50
2023/06/02 04:51:20;;;;;;;25.53;5.93;;;10.50;99.90;;;;;;4987160;28;20936;-51
2023/06/02 04:53:47;;;;;;;27.23;5.43;;;10.40;99.90;;;;;;4982352;28;20512;-51
2023/06/02 04:56:14;;;;;;;24.40;5.73;;;10.50;99.90;;;;;;4992052;28;20472;-51
2023/06/02 04:58:40;;;;;;;22.90;5.90;;;10.50;99.90;;;;;;4990406;28;20500;-52
2023/06/02 05:01:07;;;;;;;37.47;6.90;;;10.60;99.90;;;;;;4987962;28;20465;-52
2023/06/02 05:03:33;;;;;;;26.00;4.83;;;10.60;99.90;;;;;;4991135;28;20524;-51
2023/06/02 05:06:02;;;;;;;30.90;6.83;;;10.70;99.90;;;;;;4990365;28;20504;-51
2023/06/02 05:08:28;;;;;;;19.40;4.73;;;10.80;99.90;;;;;;4988934;28;20991;-52
2023/06/02 05:10:55;;;;;;;19.03;6.50;;;10.80;99.90;;;;;;4988729;28;20495;-52
2023/06/02 05:13:22;;;;;;;16.67;6.00;;;10.80;99.90;;;;;;4991397;28;20459;-53
2023/06/02 05:15:49;;;;;;;23.93;5.90;;;11.00;99.90;;;;;;4986706;28;20465;-54
2023/06/02 05:18:17;;;;;;;26.97;5.50;;;11.00;99.90;;;;;;4987898;28;20494;-53
2023/06/02 05:20:44;;;;;;;20.53;5.13;;;11.00;99.90;;;;;;4987233;28;20482;-53
2023/06/02 05:23:12;;;;;;;24.47;5.20;;;11.10;99.90;;;;;;4991078;28;20523;-53
2023/06/02 05:25:40;;;;;;;21.80;5.47;;;11.20;99.90;;;;;;4988796;28;20472;-52
2023/06/02 05:28:07;;;;;;;22.47;5.23;;;11.30;99.90;;;;;;4992856;28;20457;-52
2023/06/02 05:30:33;;;;;;;23.37;5.80;;;11.30;99.90;;;;;;4990253;28;20932;-53
2023/06/02 05:33:00;;;;;;;30.00;5.60;;;11.30;99.90;;;;;;4991802;28;20867;-53
2023/06/02 05:35:26;;;;;;;22.83;5.63;;;11.30;99.90;;;;;;4991370;28;20508;-52
2023/06/02 05:37:53;;;;;;;21.60;5.80;;;11.20;99.90;;;;;;4989698;28;20511;-53
2023/06/02 05:40:21;;;;;;;19.40;6.00;;;11.20;99.90;;;;;;4976528;28;20473;-52
2023/06/02 05:42:47;;;;;;;24.77;6.20;;;11.20;99.90;;;;;;4991648;28;20491;-53
2023/06/02 05:45:14;;;;;;;25.23;6.83;;;11.30;99.90;;;;;;4991304;28;20531;-51
2023/06/02 05:47:41;;;;;;;21.17;4.90;;;11.30;99.90;;;;;;4989105;28;20523;-53
2023/06/02 05:50:08;;;;;;;18.20;4.93;;;11.30;99.90;;;;;;4982840;28;20523;-52
2023/06/02 05:52:34;;;;;;;23.53;5.83;;;11.30;99.90;;;;;;4990647;28;20489;-53
2023/06/02 05:55:01;;;;;;;32.30;5.33;;;11.40;99.90;;;;;;4991247;28;20504;-51
2023/06/02 05:57:29;;;;;;;28.50;5.37;;;11.50;99.90;;;;;;4992449;28;20504;-53
2023/06/02 05:59:55;;;;;;;23.63;5.33;;;11.50;99.90;;;;;;4992448;28;20879;-51
2023/06/02 06:02:22;;;;;;;19.60;6.43;;;11.70;99.90;;;;;;4991280;28;22268;-52
2023/06/02 06:04:48;;;;;;;36.63;6.00;;;11.70;99.90;;;;;;4992961;28;20497;-52
2023/06/02 06:07:15;;;;;;;25.00;5.30;;;11.70;99.90;;;;;;4992565;28;20492;-52
2023/06/02 06:09:42;;;;;;;20.77;5.50;;;11.70;99.90;;;;;;4991109;28;20515;-52
2023/06/02 06:12:09;;;;;;;19.90;5.40;;;11.70;99.90;;;;;;4991709;28;20526;-51
2023/06/02 06:14:37;;;;;;;25.70;6.90;;;11.70;99.90;;;;;;4991905;28;20990;-52
2023/06/02 06:17:04;;;;;;;31.00;5.90;;;11.70;99.90;;;;;;4990978;28;20528;-52
2023/06/02 06:19:30;;;;;;;28.20;7.17;;;11.70;99.90;;;;;;4990637;28;20507;-51
2023/06/02 06:21:57;;;;;;;19.43;5.20;;;11.80;99.90;;;;;;4991604;28;20489;-54
2023/06/02 06:24:24;;;;;;;21.87;4.77;;;11.90;99.90;;;;;;4988246;28;21124;-52
2023/06/02 06:26:50;;;;;;;23.70;5.67;;;12.10;99.90;;;;;;4988911;28;20468;-51
2023/06/02 06:29:17;;;;;;;20.83;5.50;;;12.30;99.90;;;;;;4986689;28;20495;-53
2023/06/02 06:31:45;;;;;;;21.10;5.50;;;12.50;99.90;;;;;;4986612;28;20476;-53
2023/06/02 06:34:11;;;;;;;18.87;4.97;;;12.60;99.90;;;;;;4990950;28;20536;-52
2023/06/02 06:36:38;;;;;;;19.50;6.27;;;12.60;99.90;;;;;;4990371;28;21191;-52
2023/06/02 06:39:05;;;;;;;18.70;5.50;;;12.80;99.90;;;;;;4988811;28;20559;-52
2023/06/02 06:41:31;;;;;;;24.50;5.23;;;12.90;99.90;;;;;;4991915;28;21093;-51
2023/06/02 06:43:58;;;;;;;17.57;5.23;;;13.00;99.90;;;;;;4987580;28;20492;-52
2023/06/02 06:46:24;;;;;;;19.63;5.80;;;13.10;99.90;;;;;;4991840;28;20878;-51
2023/06/02 06:48:52;;;;;;;19.00;5.37;;;13.20;99.90;;;;;;4989252;28;20951;-51
2023/06/02 06:51:19;;;;;;;24.90;5.60;;;13.20;99.90;;;;;;4990455;28;20497;-51
2023/06/02 06:53:45;;;;;;;21.87;5.53;;;13.20;99.90;;;;;;4992829;28;20515;-51
2023/06/02 06:56:12;;;;;;;27.63;5.73;;;13.20;99.90;;;;;;4983582;28;20461;-53
2023/06/02 06:58:39;;;;;;;16.77;5.97;;;13.20;99.90;;;;;;4984948;28;20496;-51
2023/06/02 07:01:05;;;;;;;18.87;5.40;;;13.20;99.90;;;;;;4992308;28;20456;-53
2023/06/02 07:03:32;;;;;;;13.37;4.30;;;13.30;99.90;;;;;;4994055;28;20520;-53
2023/06/02 07:06:00;;;;;;;22.67;5.53;;;13.40;99.90;;;;;;4994719;28;20492;-53
2023/06/02 07:08:27;;;;;;;13.77;5.10;;;13.40;99.90;;;;;;4992880;28;20559;-52
2023/06/02 07:10:53;;;;;;;17.33;4.17;;;13.50;99.90;;;;;;4989946;28;20500;-53
2023/06/02 07:13:20;;;;;;;15.27;4.07;;;13.70;99.90;;;;;;4991742;28;20519;-53
2023/06/02 07:15:46;;;;;;;11.97;4.17;;;13.80;99.90;;;;;;4992141;28;20464;-53
2023/06/02 07:18:13;;;;;;;23.73;4.63;;;13.80;99.90;;;;;;4993990;28;20461;-51
2023/06/02 07:20:40;;;;;;;13.60;4.37;;;13.80;99.90;;;;;;4993414;28;20547;-53
2023/06/02 07:23:07;;;;;;;17.57;5.07;;;13.80;99.90;;;;;;4990752;28;20484;-52
2023/06/02 07:25:35;;;;;;;12.90;4.20;;;14.00;99.90;;;;;;4989889;28;20497;-53
2023/06/02 07:28:02;;;;;;;18.63;4.80;;;14.10;99.90;;;;;;4986747;28;20464;-51
2023/06/02 07:30:29;;;;;;;14.47;4.07;;;14.30;99.90;;;;;;4989267;28;20497;-53
2023/06/02 07:32:55;;;;;;;8.57;4.07;;;14.50;99.90;;;;;;4992866;28;20571;-52
2023/06/02 07:35:22;;;;;;;13.50;4.40;;;14.70;99.90;;;;;;4985094;28;20504;-52
2023/06/02 07:37:51;;;;;;;8.70;3.93;;;14.80;99.90;;;;;;4993894;28;20480;-52
2023/06/02 07:40:19;;;;;;;7.20;3.53;;;14.70;21.40;;;;;;4993159;28;20464;-53
2023/06/02 07:42:45;;;;;;;8.17;3.60;;;14.70;99.90;;;;;;4991907;28;20465;-51
2023/06/02 07:45:12;;;;;;;10.53;3.30;;;14.80;99.90;;;;;;4986831;28;20930;-51
2023/06/02 07:47:38;;;;;;;14.23;3.90;;;14.80;72.70;;;;;;4992051;28;20493;-52
2023/06/02 07:50:06;;;;;;;11.93;3.93;;;14.80;77.40;;;;;;4993851;28;20555;-52
2023/06/02 07:52:34;;;;;;;23.87;3.97;;;14.90;20.10;;;;;;4986482;28;20504;-51
2023/06/02 07:55:00;;;;;;;20.83;4.70;;;15.00;23.80;;;;;;4989112;28;20511;-53
2023/06/02 07:57:28;;;;;;;11.43;3.80;;;15.00;26.40;;;;;;4990190;28;20505;-53
2023/06/02 07:59:55;;;;;;;10.60;3.70;;;14.90;21.90;;;;;;4992449;28;20515;-53
2023/06/02 08:02:22;;;;;;;8.90;3.20;;;14.90;86.10;;;;;;4989789;28;20493;-53
2023/06/02 08:04:48;;;;;;;6.63;3.40;;;15.10;77.50;;;;;;4988159;28;20484;-53
2023/06/02 08:07:15;;;;;;;5.00;3.07;;;15.30;33.40;;;;;;4990566;28;20508;-52
2023/06/02 08:09:41;;;;;;;4.17;2.83;;;15.40;62.40;;;;;;4990277;28;20511;-53
2023/06/02 08:12:08;;;;;;;5.90;2.97;;;15.40;83.30;;;;;;4993414;28;20503;-51
2023/06/02 08:14:36;;;;;;;7.40;3.60;;;15.40;87.90;;;;;;4992748;28;21045;-52
2023/06/02 08:17:03;;;;;;;9.07;3.07;;;15.40;89.60;;;;;;4994361;28;20445;-53
2023/06/02 08:19:30;;;;;;;4.73;2.37;;;15.40;91.60;;;;;;4985364;28;20520;-54
2023/06/02 08:21:57;;;;;;;3.40;2.40;;;15.30;79.10;;;;;;4993926;28;20457;-53
2023/06/02 08:24:26;;;;;;;4.83;2.60;;;15.30;99.90;;;;;;4992631;28;21080;-53
2023/06/02 08:26:54;;;;;;;3.90;2.33;;;15.20;97.10;;;;;;4993208;28;20453;-52
2023/06/02 08:29:22;;;;;;;3.43;2.13;;;15.20;99.90;;;;;;4974539;28;20458;-51
2023/06/02 08:31:50;;;;;;;4.30;2.60;;;15.10;99.90;;;;;;4987312;28;20472;-54
2023/06/02 08:34:20;;;;;;;3.60;2.43;;;15.10;99.90;;;;;;4991884;28;20477;-50
2023/06/02 08:36:49;;;;;;;4.23;2.80;;;15.00;99.90;;;;;;4991862;28;20476;-52
2023/06/02 08:39:16;;;;;;;4.00;2.20;;;15.10;99.90;;;;;;4990655;28;20475;-52
2023/06/02 08:41:47;;;;;;;7.77;2.00;;;15.10;99.90;;;;;;4990829;28;20464;-52
2023/06/02 08:44:14;;;;;;;4.30;2.27;;;15.30;99.90;;;;;;4993061;28;20508;-53
2023/06/02 08:46:42;;;;;;;4.77;1.67;;;15.40;99.90;;;;;;4987946;28;20539;-52
2023/06/02 08:49:14;;;;;;;3.97;1.90;;;15.50;22.90;;;;;;4984866;28;20488;-53
2023/06/02 08:51:44;;;;;;;6.90;1.93;;;15.70;37.30;;;;;;4984983;28;20473;-52
2023/06/02 08:54:11;;;;;;;4.10;2.17;;;15.90;56.20;;;;;;4992970;28;20469;-52
2023/06/02 08:56:40;;;;;;;4.60;1.70;;;16.00;96.00;;;;;;4991914;28;20472;-51
2023/06/02 08:59:06;;;;;;;6.43;1.67;;;16.00;99.90;;;;;;4988562;28;20951;-51
2023/06/02 09:01:33;;;;;;;7.90;1.87;;;16.50;99.90;;;;;;4988675;28;20500;-52
2023/06/02 09:04:00;;;;;;;1.73;1.43;;;16.80;99.90;;;;;;4991193;28;20567;-54
2023/06/02 09:06:28;;;;;;;4.40;1.40;;;17.30;99.90;;;;;;4989803;28;20966;-52
2023/06/02 09:08:57;;;;;;;1.17;1.13;;;17.60;99.90;;;;;;4991460;28;20471;-52
2023/06/02 09:11:25;;;;;;;2.00;1.70;;;17.00;99.90;;;;;;4988797;28;20528;-51
2023/06/02 09:13:52;;;;;;;3.83;1.37;;;17.20;99.90;;;;;;4990790;28;20511;-52
2023/06/02 09:16:20;;;;;;;3.90;1.60;;;17.30;99.90;;;;;;4989876;28;20489;-54
2023/06/02 09:18:57;;;;;;;4.43;1.67;;;17.30;99.90;;;;;;4991564;28;20493;-53
2023/06/02 09:21:27;;;;;;;3.53;1.60;;;17.20;99.90;;;;;;4985689;28;20468;-52
2023/06/02 09:23:55;;;;;;;6.53;2.70;;;17.20;99.90;;;;;;4986535;28;20543;-52
2023/06/02 09:26:23;;;;;;;1.67;1.40;;;17.40;99.90;;;;;;4990896;28;20493;-52
2023/06/02 09:29:05;;;;;;;2.40;2.10;;;17.60;99.90;;;;;;4989068;28;20492;-54
2023/06/02 09:31:44;;;;;;;10.33;1.60;;;17.80;99.90;;;;;;4989356;28;20877;-53
2023/06/02 09:34:11;;;;;;;2.03;1.50;;;17.90;99.90;;;;;;4985719;28;20504;-53
2023/06/02 09:36:38;;;;;;;2.60;1.80;;;18.30;99.90;;;;;;4990506;28;21056;-54
2023/06/02 09:39:07;;;;;;;1.73;1.63;;;18.20;99.90;;;;;;4989140;28;20453;-51
2023/06/02 09:41:34;;;;;;;2.37;1.53;;;17.90;99.90;;;;;;4988813;28;20518;-52
2023/06/02 09:44:00;;;;;;;2.97;1.80;;;17.50;99.90;;;;;;4986876;28;20517;-52
2023/06/02 09:46:31;;;;;;;7.90;1.77;;;17.40;99.90;;;;;;4989860;28;20461;-54
2023/06/02 09:49:01;;;;;;;4.10;1.93;;;17.40;99.90;;;;;;4987671;28;21178;-51
2023/06/02 09:51:27;;;;;;;3.83;1.40;;;17.60;99.90;;;;;;4988278;28;20836;-52
2023/06/02 09:53:55;;;;;;;4.30;1.83;;;18.10;99.90;;;;;;4990242;28;21037;-53
2023/06/02 09:56:24;;;;;;;13.10;3.33;;;18.40;99.90;;;;;;4989900;28;21137;-52
2023/06/02 09:58:51;;;;;;;4.53;1.80;;;18.60;99.90;;;;;;4982483;28;20456;-52
2023/06/02 10:01:17;;;;;;;3.90;1.77;;;18.70;99.90;;;;;;4987217;28;20485;-53
2023/06/02 10:03:44;;;;;;;2.30;1.40;;;17.80;99.90;;;;;;4991278;28;20547;-52
2023/06/02 10:06:20;;;;;;;3.70;1.70;;;17.90;99.90;;;;;;4990338;28;20493;-52
2023/06/02 10:09:02;;;;;;;4.30;1.70;;;18.10;99.90;;;;;;4988540;28;21032;-53
2023/06/02 10:11:35;;;;;;;5.70;1.70;;;18.50;99.90;;;;;;4990316;28;21184;-52
2023/06/02 10:14:22;;;;;;;6.53;1.60;;;18.20;99.90;;;;;;4991487;28;21227;-52
2023/06/02 10:16:59;;;;;;;1.97;1.30;;;18.60;99.90;;;;;;4992280;28;20476;-53
2023/06/02 10:19:51;;;;;;;2.63;2.10;;;18.50;99.90;;;;;;4990320;28;21001;-53
2023/06/02 10:22:51;;;;;;;3.17;1.50;;;18.50;99.90;;;;;;4985695;28;20456;-53
2023/06/02 10:25:24;;;;;;;2.93;1.80;;;18.50;99.90;;;;;;4977991;28;21017;-51
2023/06/02 10:27:52;;;;;;;2.93;1.50;;;18.30;99.90;;;;;;4985442;28;20507;-52
2023/06/02 10:30:20;;;;;;;2.43;1.77;;;18.00;99.90;;;;;;4994312;28;20445;-53
2023/06/02 10:32:48;;;;;;;2.50;1.40;;;18.10;99.90;;;;;;4993559;28;20501;-52
2023/06/02 10:35:15;;;;;;;5.87;1.63;;;18.00;99.90;;;;;;4985317;28;20480;-52
2023/06/02 10:37:41;;;;;;;2.83;1.60;;;17.90;99.90;;;;;;4993732;28;20538;-52
2023/06/02 10:40:10;;;;;;;12.30;1.83;;;18.10;99.90;;;;;;4993267;28;20897;-52
2023/06/02 10:42:37;;;;;;;8.63;1.70;;;18.10;99.90;;;;;;4993209;28;20464;-52
2023/06/02 10:45:38;;;;;;;3.47;1.67;;;18.20;99.90;;;;;;4995018;28;20487;-52
2023/06/02 10:48:36;;;;;;;3.50;1.40;;;18.80;99.90;;;;;;4987815;28;20464;-51
2023/06/02 10:51:03;;;;;;;4.27;1.43;;;19.30;99.90;;;;;;4989824;28;20492;-52
2023/06/02 10:53:30;;;;;;;25.53;2.20;;;20.00;99.90;;;;;;4987975;28;20910;-53
2023/06/02 10:55:56;;;;;;;9.07;1.67;;;20.10;99.90;;;;;;4988972;28;20460;-52
2023/06/02 10:58:49;;;;;;;3.23;1.80;;;19.30;99.90;;;;;;4988352;28;20457;-53
2023/06/02 11:01:48;;;;;;;2.70;1.83;;;19.10;99.90;;;;;;4988109;28;20461;-54
2023/06/02 11:04:28;;;;;;;5.70;1.70;;;18.70;99.90;;;;;;4993522;28;20561;-54
2023/06/02 11:07:15;;;;;;;9.07;1.40;;;18.70;99.90;;;;;;4993441;28;20503;-51
2023/06/02 11:09:43;;;;;;;10.00;1.87;;;18.80;99.90;;;;;;4989852;28;20460;-52
2023/06/02 11:12:10;;;;;;;2.40;1.50;;;18.80;99.90;;;;;;4991987;28;20461;-52
2023/06/02 11:15:14;;;;;;;5.60;1.90;;;19.00;99.90;;;;;;4992442;28;20508;-54
2023/06/02 11:17:42;;;;;;;2.80;1.50;;;19.50;99.90;;;;;;4988696;28;20465;-52
2023/06/02 11:20:10;;;;;;;6.67;1.13;;;19.70;99.90;;;;;;4993873;28;20469;-54
2023/06/02 11:22:37;;;;;;;2.60;1.33;;;19.90;99.90;;;;;;4993339;28;20468;-52
2023/06/02 11:25:05;;;;;;;1.73;1.23;;;20.40;99.90;;;;;;4992448;28;20859;-53
2023/06/02 11:27:37;;;;;;;5.07;1.50;;;20.20;99.90;;;;;;4989613;28;20522;-52
2023/06/02 11:30:09;;;;;;;1.97;1.13;;;20.10;99.90;;;;;;4994550;28;20928;-52
2023/06/02 11:32:35;;;;;;;10.93;1.63;;;20.50;99.90;;;;;;4987468;28;20465;-52
2023/06/02 11:35:05;;;;;;;6.17;1.60;;;20.50;95.50;;;;;;4993280;28;20550;-52
2023/06/02 11:37:33;;;;;;;3.93;1.00;;;20.10;96.80;;;;;;4994616;28;20455;-54
2023/06/02 11:40:00;;;;;;;1.50;1.40;;;20.30;99.90;;;;;;4991746;28;20467;-53
2023/06/02 11:42:34;;;;;;;1.33;1.23;;;20.20;99.90;;;;;;4991861;28;20461;-52
2023/06/02 11:45:01;;;;;;;1.47;1.37;;;20.20;99.90;;;;;;4991710;28;20488;-52
2023/06/02 11:47:28;;;;;;;1.53;1.17;;;20.60;99.90;;;;;;4988777;28;20465;-53
2023/06/02 11:49:55;;;;;;;5.00;1.43;;;20.70;79.20;;;;;;4990001;28;20515;-51
2023/06/02 11:52:22;;;;;;;7.20;2.27;;;20.70;20.20;;;;;;4991010;28;20500;-53
2023/06/02 11:54:52;;;;;;;4.97;1.00;;;20.80;72.70;;;;;;4994034;28;20504;-52
2023/06/02 11:57:28;;;;;;;2.20;1.37;;;20.80;23.00;;;;;;4992195;28;21025;-52
2023/06/02 12:00:11;;;;;;;1.30;1.13;;;20.50;27.80;;;;;;4994077;28;20528;-51
2023/06/02 12:02:39;;;;;;;5.70;1.37;;;20.30;27.60;;;;;;4989405;28;20533;-52
2023/06/02 12:05:08;;;;;;;2.20;0.90;;;20.00;27.40;;;;;;4991143;28;20495;-54
2023/06/02 12:07:36;;;;;;;8.37;1.27;;;20.20;25.50;;;;;;4992403;28;20469;-53
2023/06/02 12:10:05;;;;;;;1.60;0.97;;;20.20;29.30;;;;;;4990411;28;20497;-51
2023/06/02 12:12:32;;;;;;;5.40;1.13;;;20.60;29.30;;;;;;4990345;28;20462;-54
2023/06/02 12:14:58;;;;;;;7.40;1.00;;;20.40;31.30;;;;;;4993612;28;20499;-53
2023/06/02 12:17:25;;;;;;;7.27;0.90;;;20.70;30.90;;;;;;4990711;28;20460;-52
2023/06/02 12:19:58;;;;;;;1.53;1.07;;;20.70;32.50;;;;;;4989310;28;20528;-52
2023/06/02 12:22:24;;;;;;;2.10;0.90;;;20.70;33.30;;;;;;4991652;28;20519;-52
2023/06/02 12:24:52;;;;;;;0.73;0.73;;;21.00;31.80;;;;;;4992640;28;20521;-52
2023/06/02 12:27:22;;;;;;;1.93;1.10;;;21.30;33.10;;;;;;4986559;28;20474;-52
2023/06/02 12:29:49;;;;;;;3.47;0.90;;;20.50;34.80;;;;;;4991533;28;20465;-52
2023/06/02 12:32:26;;;;;;;3.17;0.93;;;20.80;35.00;;;;;;4989441;28;20469;-53
2023/06/02 12:34:52;;;;;;;1.97;0.80;;;21.00;35.80;;;;;;4988202;28;20491;-53
2023/06/02 12:37:19;;;;;;;3.43;1.23;;;21.60;36.00;;;;;;4990587;28;20495;-51
2023/06/02 12:39:45;;;;;;;5.43;1.30;;;21.70;37.60;;;;;;4990629;28;20522;-52
2023/06/02 12:42:18;;;;;;;11.70;1.03;;;21.70;35.30;;;;;;4989538;28;20990;-51
2023/06/02 12:44:45;;;;;;;1.73;0.73;;;21.50;43.00;;;;;;4990663;28;20500;-51
2023/06/02 12:47:13;;;;;;;2.30;0.90;;;21.40;41.50;;;;;;4988657;28;20838;-50